Evenes, Norway

2:59 PM CEST on August 23, 2014 (GMT +0200)
Evenes | Change Station
CLOSE
Current Station
Airport
Location: Evenes,
Elevation: 85 ft
Nearby Weather Stations

Elev 85 ft 68.49 °N, 16.68 °E | Updated 9 minutes ago

Clear
Clear
59 °F
Feels Like 59 °F
N
9
Wind Variable Wind from NNW

Today
High -- | Low -- °F
--% Chance of Precip.
Yesterday
High -- | Low -- °F
Precip. -- in
4:40 AM 9:08 PM
Waning Crescent, 4% visible
Pressure 29.74 in
Visibility 6.2 miles
Clouds
Dew Point 48 °F
Humidity 67%
Rainfall 0.00 in
Snow Depth Not available.
UV Not available.
Pollen Not available.
Air Quality Not available.
Flu Activity Not available.
METAR ENEV 231250Z AUTO 33008KT 300V010 9999NDV NCD 15/09 Q1007 RMK WIND 1400FT 01010KT

More Conditions Fewer Conditions

Pressure 29.74 in
Visibility 6.2 miles
Clouds
Dew Point 48 °F
Humidity 67%
Rainfall 0.00 in
Snow Depth Not available.
UV Not available.
Pollen Not available.
Air Quality Not available.
Flu Activity Not available.
METAR ENEV 231250Z AUTO 33008KT 300V010 9999NDV NCD 15/09 Q1007 RMK WIND 1400FT 01010KT

More Conditions Fewer Conditions

10-Day Weather Forecast

Almanac

Astronomy

Aug. 23, 2014 Rise Set
Actual Time 4:40 AM CEST 9:08 PM CEST
Civil Twilight 3:19 AM CEST 10:27 PM CEST
Nautical Twilight 1:28 AM CEST 12:23 AM CEST
Astronomical Twilight Sun does not rise Sun does not rise
Moon 2:10 AM CEST 7:53 PM CEST
Length of Visible Light 19h 07m
Length of Day
16h 27m
Tomorrow will be 8m 37s shorter.
Waning Crescent, 4% of the Moon is Illuminated
Today
Waning Crescent
Aug 25
New
Sep 2
First Quarter
Sep 8
Full
Sep 15
Last Quarter

Yesterday's Extremes

Country Highs Country Lows

Community

WunderPhotos

Upload Photos

1,746,435 photos uploaded!

WunderBlogs® & News

By Dr. Jeff Masters
Director of Meteorology, Weather Underground
By Kari Strenfel
Meteorologist, Weather Underground
By Christopher C. Burt
Weather Historian, Weather Underground
August 23, 2014
August 23, 2014
August 23, 2014

Nearby

Snow Depth

Not available.

Earthquake Activity

City Distance Mag. Time & Date
No recent earthquake activity has been reported nearby.
Minimum magnitude displayed is 2.5.

Coastal Water Temperatures

Place Temperature
No Stations Reporting

Nearby Weather Stations